sensor_id;sensor_type;location;lat;lon;timestamp;temperature;humidity
29295;DHT22;16305;48.566;8.846;2022-12-18T00:01:23;-12.50;99.90
29295;DHT22;16305;48.566;8.846;2022-12-18T00:03:50;-12.40;99.90
29295;DHT22;16305;48.566;8.846;2022-12-18T00:06:16;-12.30;99.90
29295;DHT22;16305;48.566;8.846;2022-12-18T00:08:43;-12.30;99.90
29295;DHT22;16305;48.566;8.846;2022-12-18T00:11:12;-12.30;99.90
29295;DHT22;16305;48.566;8.846;2022-12-18T00:13:38;-12.30;99.90
29295;DHT22;16305;48.566;8.846;2022-12-18T00:16:10;-12.30;99.90
29295;DHT22;16305;48.566;8.846;2022-12-18T00:18:36;-12.30;99.90
29295;DHT22;16305;48.566;8.846;2022-12-18T00:21:04;-12.50;99.90
29295;DHT22;16305;48.566;8.846;2022-12-18T00:23:31;-12.60;99.90
29295;DHT22;16305;48.566;8.846;2022-12-18T00:26:04;-12.60;99.90
29295;DHT22;16305;48.566;8.846;2022-12-18T00:28:30;-12.60;99.90
29295;DHT22;16305;48.566;8.846;2022-12-18T00:31:33;-12.60;99.90
29295;DHT22;16305;48.566;8.846;2022-12-18T00:33:54;-12.50;99.90
29295;DHT22;16305;48.566;8.846;2022-12-18T00:36:22;-12.70;99.90
29295;DHT22;16305;48.566;8.846;2022-12-18T00:38:48;-12.80;99.90
29295;DHT22;16305;48.566;8.846;2022-12-18T00:41:15;-12.80;99.90
29295;DHT22;16305;48.566;8.846;2022-12-18T00:44:00;-12.90;99.90
29295;DHT22;16305;48.566;8.846;2022-12-18T00:46:25;-13.20;99.90
29295;DHT22;16305;48.566;8.846;2022-12-18T00:48:51;-13.40;99.90
29295;DHT22;16305;48.566;8.846;2022-12-18T00:51:16;-13.40;99.90
29295;DHT22;16305;48.566;8.846;2022-12-18T00:53:42;-13.40;99.90
29295;DHT22;16305;48.566;8.846;2022-12-18T00:56:07;-13.30;99.90
29295;DHT22;16305;48.566;8.846;2022-12-18T00:58:36;-13.40;99.90
29295;DHT22;16305;48.566;8.846;2022-12-18T01:01:04;-13.50;99.90
29295;DHT22;16305;48.566;8.846;2022-12-18T01:03:30;-13.80;99.90
29295;DHT22;16305;48.566;8.846;2022-12-18T01:05:56;-13.90;99.90
29295;DHT22;16305;48.566;8.846;2022-12-18T01:08:21;-13.70;99.90
29295;DHT22;16305;48.566;8.846;2022-12-18T01:10:47;-13.50;99.90
29295;DHT22;16305;48.566;8.846;2022-12-18T01:13:12;-13.10;99.90
29295;DHT22;16305;48.566;8.846;2022-12-18T01:15:38;-13.00;99.90
29295;DHT22;16305;48.566;8.846;2022-12-18T01:18:05;-13.00;99.90
29295;DHT22;16305;48.566;8.846;2022-12-18T01:20:30;-13.20;99.90
29295;DHT22;16305;48.566;8.846;2022-12-18T01:22:56;-13.20;99.90
29295;DHT22;16305;48.566;8.846;2022-12-18T01:25:22;-13.20;99.90
29295;DHT22;16305;48.566;8.846;2022-12-18T01:27:47;-13.00;99.90
29295;DHT22;16305;48.566;8.846;2022-12-18T01:30:13;-13.30;99.90
29295;DHT22;16305;48.566;8.846;2022-12-18T01:32:38;-13.60;99.90
29295;DHT22;16305;48.566;8.846;2022-12-18T01:35:04;-13.70;99.90
29295;DHT22;16305;48.566;8.846;2022-12-18T01:37:30;-13.50;99.90
29295;DHT22;16305;48.566;8.846;2022-12-18T01:39:56;-13.20;99.90
29295;DHT22;16305;48.566;8.846;2022-12-18T01:42:22;-12.90;99.90
29295;DHT22;16305;48.566;8.846;2022-12-18T01:50:20;-12.40;99.90
29295;DHT22;16305;48.566;8.846;2022-12-18T01:53:00;-12.30;99.90
29295;DHT22;16305;48.566;8.846;2022-12-18T01:55:29;-12.30;99.90
29295;DHT22;16305;48.566;8.846;2022-12-18T01:57:58;-12.30;99.90
29295;DHT22;16305;48.566;8.846;2022-12-18T02:00:25;-12.40;99.90
29295;DHT22;16305;48.566;8.846;2022-12-18T02:02:52;-12.30;99.90
29295;DHT22;16305;48.566;8.846;2022-12-18T02:05:37;-12.30;99.90
29295;DHT22;16305;48.566;8.846;2022-12-18T02:08:22;-12.30;99.90
29295;DHT22;16305;48.566;8.846;2022-12-18T02:11:04;-12.20;99.90
29295;DHT22;16305;48.566;8.846;2022-12-18T02:13:54;-12.10;99.90
29295;DHT22;16305;48.566;8.846;2022-12-18T02:19:25;-12.10;99.90
29295;DHT22;16305;48.566;8.846;2022-12-18T02:22:01;-11.80;99.90
29295;DHT22;16305;48.566;8.846;2022-12-18T02:24:46;-11.80;99.90
29295;DHT22;16305;48.566;8.846;2022-12-18T02:27:14;-11.80;99.90
29295;DHT22;16305;48.566;8.846;2022-12-18T02:29:53;-12.10;99.90
29295;DHT22;16305;48.566;8.846;2022-12-18T02:32:25;-12.10;99.90
29295;DHT22;16305;48.566;8.846;2022-12-18T02:34:54;-12.10;99.90
29295;DHT22;16305;48.566;8.846;2022-12-18T02:37:22;-12.00;99.90
29295;DHT22;16305;48.566;8.846;2022-12-18T02:39:49;-11.90;99.90
29295;DHT22;16305;48.566;8.846;2022-12-18T02:42:17;-11.90;99.90
29295;DHT22;16305;48.566;8.846;2022-12-18T02:44:46;-11.80;99.90
29295;DHT22;16305;48.566;8.846;2022-12-18T02:47:12;-11.90;99.90
29295;DHT22;16305;48.566;8.846;2022-12-18T02:50:07;-12.00;99.90
29295;DHT22;16305;48.566;8.846;2022-12-18T02:58:10;-11.60;99.90
29295;DHT22;16305;48.566;8.846;2022-12-18T03:00:50;-11.60;99.90
29295;DHT22;16305;48.566;8.846;2022-12-18T03:06:10;-11.60;99.90
29295;DHT22;16305;48.566;8.846;2022-12-18T03:08:41;-11.50;99.90
29295;DHT22;16305;48.566;8.846;2022-12-18T03:11:12;-11.40;99.90
29295;DHT22;16305;48.566;8.846;2022-12-18T03:13:45;-11.40;99.90
29295;DHT22;16305;48.566;8.846;2022-12-18T03:16:23;-11.40;99.90
29295;DHT22;16305;48.566;8.846;2022-12-18T03:18:55;-11.50;99.90
29295;DHT22;16305;48.566;8.846;2022-12-18T03:21:28;-11.60;99.90
29295;DHT22;16305;48.566;8.846;2022-12-18T03:23:55;-11.60;99.90
29295;DHT22;16305;48.566;8.846;2022-12-18T03:26:24;-11.50;99.90
29295;DHT22;16305;48.566;8.846;2022-12-18T03:28:53;-11.40;99.90
29295;DHT22;16305;48.566;8.846;2022-12-18T03:31:23;-11.40;99.90
29295;DHT22;16305;48.566;8.846;2022-12-18T03:33:55;-11.50;99.90
29295;DHT22;16305;48.566;8.846;2022-12-18T03:36:21;-11.50;99.90
29295;DHT22;16305;48.566;8.846;2022-12-18T03:38:47;-11.30;99.90
29295;DHT22;16305;48.566;8.846;2022-12-18T03:41:36;-11.20;99.90
29295;DHT22;16305;48.566;8.846;2022-12-18T03:46:55;-11.00;99.90
29295;DHT22;16305;48.566;8.846;2022-12-18T03:49:27;-10.90;99.90
29295;DHT22;16305;48.566;8.846;2022-12-18T03:52:02;-10.80;99.90
29295;DHT22;16305;48.566;8.846;2022-12-18T03:54:29;-10.80;99.90
29295;DHT22;16305;48.566;8.846;2022-12-18T03:56:59;-10.60;99.90
29295;DHT22;16305;48.566;8.846;2022-12-18T03:59:28;-10.60;99.90
29295;DHT22;16305;48.566;8.846;2022-12-18T04:01:55;-10.70;99.90
29295;DHT22;16305;48.566;8.846;2022-12-18T04:04:24;-10.80;99.90
29295;DHT22;16305;48.566;8.846;2022-12-18T04:06:50;-10.70;99.90
29295;DHT22;16305;48.566;8.846;2022-12-18T04:09:18;-10.80;99.90
29295;DHT22;16305;48.566;8.846;2022-12-18T04:11:43;-10.80;99.90
29295;DHT22;16305;48.566;8.846;2022-12-18T04:14:10;-10.90;99.90
29295;DHT22;16305;48.566;8.846;2022-12-18T04:16:36;-10.80;99.90
29295;DHT22;16305;48.566;8.846;2022-12-18T04:19:02;-10.80;99.90
29295;DHT22;16305;48.566;8.846;2022-12-18T04:21:28;-10.70;99.90
29295;DHT22;16305;48.566;8.846;2022-12-18T04:23:53;-10.60;99.90
29295;DHT22;16305;48.566;8.846;2022-12-18T04:26:19;-10.60;99.90
29295;DHT22;16305;48.566;8.846;2022-12-18T04:28:44;-10.50;99.90
29295;DHT22;16305;48.566;8.846;2022-12-18T04:31:10;-10.30;99.90
29295;DHT22;16305;48.566;8.846;2022-12-18T04:33:35;-10.30;99.90
29295;DHT22;16305;48.566;8.846;2022-12-18T04:36:01;-10.30;99.90
29295;DHT22;16305;48.566;8.846;2022-12-18T04:38:26;-10.30;99.90
29295;DHT22;16305;48.566;8.846;2022-12-18T04:40:52;-10.30;99.90
29295;DHT22;16305;48.566;8.846;2022-12-18T04:43:17;-10.30;99.90
29295;DHT22;16305;48.566;8.846;2022-12-18T04:45:43;-10.30;99.90
29295;DHT22;16305;48.566;8.846;2022-12-18T04:48:08;-10.40;99.90
29295;DHT22;16305;48.566;8.846;2022-12-18T04:50:34;-10.50;99.90
29295;DHT22;16305;48.566;8.846;2022-12-18T04:53:00;-10.40;99.90
29295;DHT22;16305;48.566;8.846;2022-12-18T04:55:26;-10.40;99.90
29295;DHT22;16305;48.566;8.846;2022-12-18T04:57:52;-10.50;99.90
29295;DHT22;16305;48.566;8.846;2022-12-18T05:00:17;-10.60;99.90
29295;DHT22;16305;48.566;8.846;2022-12-18T05:02:43;-10.80;99.90
29295;DHT22;16305;48.566;8.846;2022-12-18T05:05:09;-10.80;99.90
29295;DHT22;16305;48.566;8.846;2022-12-18T05:07:34;-11.10;99.90
29295;DHT22;16305;48.566;8.846;2022-12-18T05:10:00;-11.30;99.90
29295;DHT22;16305;48.566;8.846;2022-12-18T05:12:26;-11.30;99.90
29295;DHT22;16305;48.566;8.846;2022-12-18T05:14:51;-11.30;99.90
29295;DHT22;16305;48.566;8.846;2022-12-18T05:17:17;-11.20;99.90
29295;DHT22;16305;48.566;8.846;2022-12-18T05:19:43;-11.30;99.90
29295;DHT22;16305;48.566;8.846;2022-12-18T05:22:09;-11.40;99.90
29295;DHT22;16305;48.566;8.846;2022-12-18T05:24:34;-11.30;99.90
29295;DHT22;16305;48.566;8.846;2022-12-18T05:27:00;-11.20;99.90
29295;DHT22;16305;48.566;8.846;2022-12-18T05:29:26;-11.10;99.90
29295;DHT22;16305;48.566;8.846;2022-12-18T05:31:51;-11.20;99.90
29295;DHT22;16305;48.566;8.846;2022-12-18T05:34:17;-11.20;99.90
29295;DHT22;16305;48.566;8.846;2022-12-18T05:36:42;-11.20;99.90
29295;DHT22;16305;48.566;8.846;2022-12-18T05:39:08;-11.20;99.90
29295;DHT22;16305;48.566;8.846;2022-12-18T05:41:33;-11.00;99.90
29295;DHT22;16305;48.566;8.846;2022-12-18T05:43:59;-11.20;99.90
29295;DHT22;16305;48.566;8.846;2022-12-18T05:46:25;-11.20;99.90
29295;DHT22;16305;48.566;8.846;2022-12-18T05:48:51;-11.40;99.90
29295;DHT22;16305;48.566;8.846;2022-12-18T05:51:19;-11.60;99.90
29295;DHT22;16305;48.566;8.846;2022-12-18T05:53:45;-11.70;99.90
29295;DHT22;16305;48.566;8.846;2022-12-18T05:56:14;-11.80;99.90
29295;DHT22;16305;48.566;8.846;2022-12-18T05:58:40;-12.20;99.90
29295;DHT22;16305;48.566;8.846;2022-12-18T06:01:08;-12.30;99.90
29295;DHT22;16305;48.566;8.846;2022-12-18T06:03:34;-12.30;99.90
29295;DHT22;16305;48.566;8.846;2022-12-18T06:06:00;-12.30;99.90
29295;DHT22;16305;48.566;8.846;2022-12-18T06:08:25;-12.20;99.90
29295;DHT22;16305;48.566;8.846;2022-12-18T06:10:52;-12.20;99.90
29295;DHT22;16305;48.566;8.846;2022-12-18T06:13:18;-12.10;99.90
29295;DHT22;16305;48.566;8.846;2022-12-18T06:15:44;-12.20;99.90
29295;DHT22;16305;48.566;8.846;2022-12-18T06:18:09;-12.00;99.90
29295;DHT22;16305;48.566;8.846;2022-12-18T06:20:35;-11.80;99.90
29295;DHT22;16305;48.566;8.846;2022-12-18T06:23:02;-11.60;99.90
29295;DHT22;16305;48.566;8.846;2022-12-18T06:25:28;-11.60;99.90
29295;DHT22;16305;48.566;8.846;2022-12-18T06:27:53;-11.60;99.90
29295;DHT22;16305;48.566;8.846;2022-12-18T06:30:19;-11.60;99.90
29295;DHT22;16305;48.566;8.846;2022-12-18T06:32:45;-11.70;99.90
29295;DHT22;16305;48.566;8.846;2022-12-18T06:35:11;-12.10;99.90
29295;DHT22;16305;48.566;8.846;2022-12-18T06:37:36;-12.30;99.90
29295;DHT22;16305;48.566;8.846;2022-12-18T06:40:02;-12.40;99.90
29295;DHT22;16305;48.566;8.846;2022-12-18T06:42:28;-12.60;99.90
29295;DHT22;16305;48.566;8.846;2022-12-18T06:44:54;-12.60;99.90
29295;DHT22;16305;48.566;8.846;2022-12-18T06:47:20;-12.50;99.90
29295;DHT22;16305;48.566;8.846;2022-12-18T06:49:45;-12.30;99.90
29295;DHT22;16305;48.566;8.846;2022-12-18T06:52:11;-12.20;99.90
29295;DHT22;16305;48.566;8.846;2022-12-18T06:54:36;-12.10;99.90
29295;DHT22;16305;48.566;8.846;2022-12-18T06:57:02;-12.10;99.90
29295;DHT22;16305;48.566;8.846;2022-12-18T06:59:27;-12.00;99.90
29295;DHT22;16305;48.566;8.846;2022-12-18T07:01:53;-12.00;99.90
29295;DHT22;16305;48.566;8.846;2022-12-18T07:04:18;-12.00;99.90
29295;DHT22;16305;48.566;8.846;2022-12-18T07:06:44;-12.00;99.90
29295;DHT22;16305;48.566;8.846;2022-12-18T07:09:09;-12.00;99.90
29295;DHT22;16305;48.566;8.846;2022-12-18T07:11:35;-12.00;99.90
29295;DHT22;16305;48.566;8.846;2022-12-18T07:14:00;-12.20;99.90
29295;DHT22;16305;48.566;8.846;2022-12-18T07:16:26;-12.40;99.90
29295;DHT22;16305;48.566;8.846;2022-12-18T07:18:54;-12.50;99.90
29295;DHT22;16305;48.566;8.846;2022-12-18T07:21:21;-12.40;99.90
29295;DHT22;16305;48.566;8.846;2022-12-18T07:23:47;-12.30;99.90
29295;DHT22;16305;48.566;8.846;2022-12-18T07:26:15;-12.30;99.90
29295;DHT22;16305;48.566;8.846;2022-12-18T07:28:41;-12.30;99.90
29295;DHT22;16305;48.566;8.846;2022-12-18T07:31:13;-12.00;99.90
29295;DHT22;16305;48.566;8.846;2022-12-18T07:33:39;-12.10;99.90
29295;DHT22;16305;48.566;8.846;2022-12-18T07:36:06;-12.30;99.90
29295;DHT22;16305;48.566;8.846;2022-12-18T07:38:33;-12.30;99.90
29295;DHT22;16305;48.566;8.846;2022-12-18T07:41:04;-12.40;99.90
29295;DHT22;16305;48.566;8.846;2022-12-18T07:43:30;-12.40;99.90
29295;DHT22;16305;48.566;8.846;2022-12-18T07:45:56;-12.50;99.90
29295;DHT22;16305;48.566;8.846;2022-12-18T07:48:21;-12.40;99.90
29295;DHT22;16305;48.566;8.846;2022-12-18T07:50:47;-12.30;99.90
29295;DHT22;16305;48.566;8.846;2022-12-18T07:53:13;-12.30;99.90
29295;DHT22;16305;48.566;8.846;2022-12-18T07:55:40;-12.30;99.90
29295;DHT22;16305;48.566;8.846;2022-12-18T07:58:07;-12.30;99.90
29295;DHT22;16305;48.566;8.846;2022-12-18T08:00:33;-12.20;99.90
29295;DHT22;16305;48.566;8.846;2022-12-18T08:02:59;-12.30;99.90
29295;DHT22;16305;48.566;8.846;2022-12-18T08:05:25;-12.30;99.90
29295;DHT22;16305;48.566;8.846;2022-12-18T08:07:51;-12.30;99.90
29295;DHT22;16305;48.566;8.846;2022-12-18T08:10:16;-12.30;99.90
29295;DHT22;16305;48.566;8.846;2022-12-18T08:12:42;-12.30;99.90
29295;DHT22;16305;48.566;8.846;2022-12-18T08:15:08;-12.30;99.90
29295;DHT22;16305;48.566;8.846;2022-12-18T08:17:34;-12.40;99.90
29295;DHT22;16305;48.566;8.846;2022-12-18T08:19:59;-12.50;99.90
29295;DHT22;16305;48.566;8.846;2022-12-18T08:22:25;-12.70;99.90
29295;DHT22;16305;48.566;8.846;2022-12-18T08:24:50;-12.80;99.90
29295;DHT22;16305;48.566;8.846;2022-12-18T08:27:16;-12.90;99.90
29295;DHT22;16305;48.566;8.846;2022-12-18T08:29:41;-12.80;99.90
29295;DHT22;16305;48.566;8.846;2022-12-18T08:32:07;-12.60;99.90
29295;DHT22;16305;48.566;8.846;2022-12-18T08:34:33;-12.30;99.90
29295;DHT22;16305;48.566;8.846;2022-12-18T08:36:58;-12.00;99.90
29295;DHT22;16305;48.566;8.846;2022-12-18T08:39:24;-11.90;99.90
29295;DHT22;16305;48.566;8.846;2022-12-18T08:41:49;-11.80;99.90
29295;DHT22;16305;48.566;8.846;2022-12-18T08:44:44;-11.70;99.90
29295;DHT22;16305;48.566;8.846;2022-12-18T08:47:09;-11.70;99.90
29295;DHT22;16305;48.566;8.846;2022-12-18T08:49:35;-11.40;99.90
29295;DHT22;16305;48.566;8.846;2022-12-18T08:52:01;-11.20;99.90
29295;DHT22;16305;48.566;8.846;2022-12-18T08:54:28;-11.10;99.90
29295;DHT22;16305;48.566;8.846;2022-12-18T08:56:53;-11.20;99.90
29295;DHT22;16305;48.566;8.846;2022-12-18T08:59:19;-11.30;99.90
29295;DHT22;16305;48.566;8.846;2022-12-18T09:01:46;-11.40;99.90
29295;DHT22;16305;48.566;8.846;2022-12-18T09:04:12;-11.40;99.90
29295;DHT22;16305;48.566;8.846;2022-12-18T09:06:39;-11.30;99.90
29295;DHT22;16305;48.566;8.846;2022-12-18T09:09:05;-11.20;99.90
29295;DHT22;16305;48.566;8.846;2022-12-18T09:11:32;-11.10;99.90
29295;DHT22;16305;48.566;8.846;2022-12-18T09:13:59;-11.20;99.90
29295;DHT22;16305;48.566;8.846;2022-12-18T09:16:26;-11.00;99.90
29295;DHT22;16305;48.566;8.846;2022-12-18T09:18:56;-11.00;99.90
29295;DHT22;16305;48.566;8.846;2022-12-18T09:21:27;-11.00;99.90
29295;DHT22;16305;48.566;8.846;2022-12-18T09:23:54;-10.90;99.90
29295;DHT22;16305;48.566;8.846;2022-12-18T09:26:21;-11.00;99.90
29295;DHT22;16305;48.566;8.846;2022-12-18T09:28:47;-11.00;99.90
29295;DHT22;16305;48.566;8.846;2022-12-18T09:31:15;-11.00;99.90
29295;DHT22;16305;48.566;8.846;2022-12-18T09:33:41;-11.10;99.90
29295;DHT22;16305;48.566;8.846;2022-12-18T09:36:08;-11.10;99.90
29295;DHT22;16305;48.566;8.846;2022-12-18T09:38:34;-11.10;99.90
29295;DHT22;16305;48.566;8.846;2022-12-18T09:43:54;-11.20;99.90
29295;DHT22;16305;48.566;8.846;2022-12-18T09:46:29;-11.10;99.90
29295;DHT22;16305;48.566;8.846;2022-12-18T09:48:59;-10.70;99.90
29295;DHT22;16305;48.566;8.846;2022-12-18T09:51:30;-10.70;99.90
29295;DHT22;16305;48.566;8.846;2022-12-18T09:54:01;-10.50;99.90
29295;DHT22;16305;48.566;8.846;2022-12-18T09:56:30;-10.10;99.90
29295;DHT22;16305;48.566;8.846;2022-12-18T09:59:01;-10.20;99.90
29295;DHT22;16305;48.566;8.846;2022-12-18T10:01:28;-10.10;99.90
29295;DHT22;16305;48.566;8.846;2022-12-18T10:03:54;-10.00;99.90
29295;DHT22;16305;48.566;8.846;2022-12-18T10:06:35;-9.70;99.90
29295;DHT22;16305;48.566;8.846;2022-12-18T10:09:27;-9.90;99.90
29295;DHT22;16305;48.566;8.846;2022-12-18T10:14:44;-9.70;99.90
29295;DHT22;16305;48.566;8.846;2022-12-18T10:24:56;-9.30;99.90
29295;DHT22;16305;48.566;8.846;2022-12-18T10:27:27;-9.30;99.90
29295;DHT22;16305;48.566;8.846;2022-12-18T10:29:53;-9.30;99.90
29295;DHT22;16305;48.566;8.846;2022-12-18T10:32:23;-9.20;99.90
29295;DHT22;16305;48.566;8.846;2022-12-18T10:34:52;-8.90;99.90
29295;DHT22;16305;48.566;8.846;2022-12-18T10:37:20;-8.60;99.90
29295;DHT22;16305;48.566;8.846;2022-12-18T10:40:06;-8.10;99.90
29295;DHT22;16305;48.566;8.846;2022-12-18T10:42:32;-8.00;99.90
29295;DHT22;16305;48.566;8.846;2022-12-18T10:47:33;-8.00;99.90
29295;DHT22;16305;48.566;8.846;2022-12-18T10:49:59;-7.90;99.90
29295;DHT22;16305;48.566;8.846;2022-12-18T10:52:26;-7.80;99.90
29295;DHT22;16305;48.566;8.846;2022-12-18T10:54:55;-8.00;99.90
29295;DHT22;16305;48.566;8.846;2022-12-18T10:59:55;-7.90;99.90
29295;DHT22;16305;48.566;8.846;2022-12-18T11:02:27;-7.70;99.90
29295;DHT22;16305;48.566;8.846;2022-12-18T11:04:58;-7.60;99.90
29295;DHT22;16305;48.566;8.846;2022-12-18T11:07:23;-7.40;99.90
29295;DHT22;16305;48.566;8.846;2022-12-18T11:10:00;-7.70;99.90
29295;DHT22;16305;48.566;8.846;2022-12-18T11:12:28;-7.70;99.90
29295;DHT22;16305;48.566;8.846;2022-12-18T11:14:55;-7.50;99.90
29295;DHT22;16305;48.566;8.846;2022-12-18T11:19:57;-7.20;99.90
29295;DHT22;16305;48.566;8.846;2022-12-18T11:22:27;-7.40;99.90
29295;DHT22;16305;48.566;8.846;2022-12-18T11:27:24;-7.00;99.90
29295;DHT22;16305;48.566;8.846;2022-12-18T11:29:50;-5.80;99.90
29295;DHT22;16305;48.566;8.846;2022-12-18T11:35:32;-2.80;99.90
29295;DHT22;16305;48.566;8.846;2022-12-18T11:38:12;-0.40;99.90
29295;DHT22;16305;48.566;8.846;2022-12-18T11:40:45;1.70;99.90
29295;DHT22;16305;48.566;8.846;2022-12-18T11:43:17;3.00;99.90
29295;DHT22;16305;48.566;8.846;2022-12-18T11:45:59;3.50;99.90
29295;DHT22;16305;48.566;8.846;2022-12-18T11:48:34;2.20;99.90
29295;DHT22;16305;48.566;8.846;2022-12-18T11:51:05;1.90;99.90
29295;DHT22;16305;48.566;8.846;2022-12-18T11:53:34;2.40;99.90
29295;DHT22;16305;48.566;8.846;2022-12-18T11:56:26;2.30;99.90
29295;DHT22;16305;48.566;8.846;2022-12-18T11:59:16;1.90;99.90
29295;DHT22;16305;48.566;8.846;2022-12-18T12:01:53;2.00;99.90
29295;DHT22;16305;48.566;8.846;2022-12-18T12:09:59;3.70;99.90
29295;DHT22;16305;48.566;8.846;2022-12-18T12:15:37;4.10;99.90
29295;DHT22;16305;48.566;8.846;2022-12-18T12:18:08;3.90;99.90
29295;DHT22;16305;48.566;8.846;2022-12-18T12:21:26;3.00;99.90
29295;DHT22;16305;48.566;8.846;2022-12-18T12:29:31;1.20;99.90
29295;DHT22;16305;48.566;8.846;2022-12-18T12:39:44;-0.20;99.90
29295;DHT22;16305;48.566;8.846;2022-12-18T12:42:41;0.50;99.90
29295;DHT22;16305;48.566;8.846;2022-12-18T12:45:31;0.70;99.90
29295;DHT22;16305;48.566;8.846;2022-12-18T12:48:02;0.90;99.90
29295;DHT22;16305;48.566;8.846;2022-12-18T12:50:32;0.80;99.90
29295;DHT22;16305;48.566;8.846;2022-12-18T12:53:01;0.80;99.90
29295;DHT22;16305;48.566;8.846;2022-12-18T12:55:30;0.60;99.90
29295;DHT22;16305;48.566;8.846;2022-12-18T12:57:58;0.50;99.90
29295;DHT22;16305;48.566;8.846;2022-12-18T13:00:25;0.40;99.90
29295;DHT22;16305;48.566;8.846;2022-12-18T13:03:15;0.00;99.90
29295;DHT22;16305;48.566;8.846;2022-12-18T13:05:54;0.00;99.90
29295;DHT22;16305;48.566;8.846;2022-12-18T13:08:30;0.20;99.90
29295;DHT22;16305;48.566;8.846;2022-12-18T13:10:58;0.20;99.90
29295;DHT22;16305;48.566;8.846;2022-12-18T13:13:54;0.50;99.90
29295;DHT22;16305;48.566;8.846;2022-12-18T13:16:22;0.40;99.90
29295;DHT22;16305;48.566;8.846;2022-12-18T13:18:50;0.00;99.90
29295;DHT22;16305;48.566;8.846;2022-12-18T13:23:48;-0.50;99.90
29295;DHT22;16305;48.566;8.846;2022-12-18T13:31:15;-1.50;99.90
29295;DHT22;16305;48.566;8.846;2022-12-18T13:34:19;-2.10;99.90
29295;DHT22;16305;48.566;8.846;2022-12-18T13:36:45;-2.60;99.90
29295;DHT22;16305;48.566;8.846;2022-12-18T13:41:51;-2.30;99.90
29295;DHT22;16305;48.566;8.846;2022-12-18T13:44:34;-1.90;99.90
29295;DHT22;16305;48.566;8.846;2022-12-18T13:47:03;-1.60;99.90
29295;DHT22;16305;48.566;8.846;2022-12-18T13:49:43;-1.20;99.90
29295;DHT22;16305;48.566;8.846;2022-12-18T13:52:36;-0.80;99.90
29295;DHT22;16305;48.566;8.846;2022-12-18T13:55:05;-0.50;99.90
29295;DHT22;16305;48.566;8.846;2022-12-18T14:00:27;0.30;99.90
29295;DHT22;16305;48.566;8.846;2022-12-18T14:02:54;0.10;99.90
29295;DHT22;16305;48.566;8.846;2022-12-18T14:05:35;0.00;99.90
29295;DHT22;16305;48.566;8.846;2022-12-18T14:08:07;-0.60;99.90
29295;DHT22;16305;48.566;8.846;2022-12-18T14:10:35;-1.10;99.90
29295;DHT22;16305;48.566;8.846;2022-12-18T14:13:06;-1.70;99.90
29295;DHT22;16305;48.566;8.846;2022-12-18T14:15:39;-1.90;99.90
29295;DHT22;16305;48.566;8.846;2022-12-18T14:20:44;-2.00;99.90
29295;DHT22;16305;48.566;8.846;2022-12-18T14:25:56;-2.10;99.90
29295;DHT22;16305;48.566;8.846;2022-12-18T14:28:21;-2.30;99.90
29295;DHT22;16305;48.566;8.846;2022-12-18T14:30:48;-2.40;99.90
29295;DHT22;16305;48.566;8.846;2022-12-18T14:33:27;-2.70;99.90
29295;DHT22;16305;48.566;8.846;2022-12-18T14:36:02;-2.80;99.90
29295;DHT22;16305;48.566;8.846;2022-12-18T14:38:39;-3.10;99.90
29295;DHT22;16305;48.566;8.846;2022-12-18T14:43:36;-3.40;99.90
29295;DHT22;16305;48.566;8.846;2022-12-18T14:46:04;-3.50;99.90
29295;DHT22;16305;48.566;8.846;2022-12-18T14:48:35;-3.60;99.90
29295;DHT22;16305;48.566;8.846;2022-12-18T14:53:40;-4.20;99.90
29295;DHT22;16305;48.566;8.846;2022-12-18T14:56:28;-4.20;99.90
29295;DHT22;16305;48.566;8.846;2022-12-18T14:58:56;-4.40;99.90
29295;DHT22;16305;48.566;8.846;2022-12-18T15:01:29;-4.40;99.90
29295;DHT22;16305;48.566;8.846;2022-12-18T15:03:57;-4.30;99.90
29295;DHT22;16305;48.566;8.846;2022-12-18T15:06:37;-4.40;99.90
29295;DHT22;16305;48.566;8.846;2022-12-18T15:09:24;-4.40;99.90
29295;DHT22;16305;48.566;8.846;2022-12-18T15:11:55;-4.60;99.90
29295;DHT22;16305;48.566;8.846;2022-12-18T15:16:56;-4.80;99.90
29295;DHT22;16305;48.566;8.846;2022-12-18T15:19:39;-4.80;99.90
29295;DHT22;16305;48.566;8.846;2022-12-18T15:22:21;-4.90;99.90
29295;DHT22;16305;48.566;8.846;2022-12-18T15:24:48;-4.90;99.90
29295;DHT22;16305;48.566;8.846;2022-12-18T15:27:32;-4.90;99.90
29295;DHT22;16305;48.566;8.846;2022-12-18T15:32:33;-5.10;99.90
29295;DHT22;16305;48.566;8.846;2022-12-18T15:35:23;-5.10;99.90
29295;DHT22;16305;48.566;8.846;2022-12-18T15:37:52;-5.20;99.90
29295;DHT22;16305;48.566;8.846;2022-12-18T15:40:23;-5.10;99.90
29295;DHT22;16305;48.566;8.846;2022-12-18T15:42:52;-5.20;99.90
29295;DHT22;16305;48.566;8.846;2022-12-18T15:45:37;-5.30;99.90
29295;DHT22;16305;48.566;8.846;2022-12-18T15:48:21;-5.20;99.90
29295;DHT22;16305;48.566;8.846;2022-12-18T15:50:48;-5.20;99.90
29295;DHT22;16305;48.566;8.846;2022-12-18T15:53:15;-5.30;99.90
29295;DHT22;16305;48.566;8.846;2022-12-18T15:55:40;-5.30;99.90
29295;DHT22;16305;48.566;8.846;2022-12-18T15:58:24;-5.30;99.90
29295;DHT22;16305;48.566;8.846;2022-12-18T16:00:50;-5.30;99.90
29295;DHT22;16305;48.566;8.846;2022-12-18T16:03:15;-5.30;99.90
29295;DHT22;16305;48.566;8.846;2022-12-18T16:05:41;-5.40;99.90
29295;DHT22;16305;48.566;8.846;2022-12-18T16:08:06;-5.30;99.90
29295;DHT22;16305;48.566;8.846;2022-12-18T16:10:32;-5.30;99.90
29295;DHT22;16305;48.566;8.846;2022-12-18T16:12:57;-5.40;99.90
29295;DHT22;16305;48.566;8.846;2022-12-18T16:15:23;-5.40;99.90
29295;DHT22;16305;48.566;8.846;2022-12-18T16:17:48;-5.40;99.90
29295;DHT22;16305;48.566;8.846;2022-12-18T16:20:20;-5.40;99.90
29295;DHT22;16305;48.566;8.846;2022-12-18T16:22:46;-5.30;99.90
29295;DHT22;16305;48.566;8.846;2022-12-18T16:25:24;-5.20;99.90
29295;DHT22;16305;48.566;8.846;2022-12-18T16:27:51;-5.20;99.90
29295;DHT22;16305;48.566;8.846;2022-12-18T16:30:19;-5.20;99.90
29295;DHT22;16305;48.566;8.846;2022-12-18T16:32:45;-5.20;99.90
29295;DHT22;16305;48.566;8.846;2022-12-18T16:35:12;-5.10;99.90
29295;DHT22;16305;48.566;8.846;2022-12-18T16:37:38;-5.10;99.90
29295;DHT22;16305;48.566;8.846;2022-12-18T16:40:05;-5.10;99.90
29295;DHT22;16305;48.566;8.846;2022-12-18T16:42:31;-5.10;99.90
29295;DHT22;16305;48.566;8.846;2022-12-18T16:44:56;-5.10;99.90
29295;DHT22;16305;48.566;8.846;2022-12-18T16:47:22;-5.10;99.90
29295;DHT22;16305;48.566;8.846;2022-12-18T16:49:47;-5.00;99.90
29295;DHT22;16305;48.566;8.846;2022-12-18T16:52:17;-5.00;99.90
29295;DHT22;16305;48.566;8.846;2022-12-18T16:54:42;-4.90;99.90
29295;DHT22;16305;48.566;8.846;2022-12-18T16:57:10;-5.00;99.90
29295;DHT22;16305;48.566;8.846;2022-12-18T16:59:37;-5.00;99.90
29295;DHT22;16305;48.566;8.846;2022-12-18T17:02:02;-5.00;99.90
29295;DHT22;16305;48.566;8.846;2022-12-18T17:04:28;-5.00;99.90
29295;DHT22;16305;48.566;8.846;2022-12-18T17:06:53;-5.00;99.90
29295;DHT22;16305;48.566;8.846;2022-12-18T17:09:20;-5.00;99.90
29295;DHT22;16305;48.566;8.846;2022-12-18T17:11:52;-4.90;99.90
29295;DHT22;16305;48.566;8.846;2022-12-18T17:14:20;-4.90;99.90